Time;durP1;ratioP1;P1;durP2;ratioP2;P2;SDS_P1;SDS_P2;PMS_P1;PMS_P2;Temp;Humidity;BMP_temperature;BMP_pressure;BME280_temperature;BME280_humidity;BME280_pressure;Samples;Min_cycle;Max_cycle;Signal;HPM_P1;HPM_P2
2021/06/30 00:01:38;;;;;;;;;;;;;;;20.84;59.33;96727.72;1712790;83;20161;-76
2021/06/30 00:04:08;;;;;;;;;;;;;;;20.87;59.87;96728.67;1700002;83;20114;-75
2021/06/30 00:06:34;;;;;;;;;;;;;;;20.88;60.52;96724.97;1695925;83;20436;-76
2021/06/30 00:09:00;;;;;;;;;;;;;;;20.89;61.95;96727.97;1708528;83;20419;-76
2021/06/30 00:11:26;;;;;;;;;;;;;;;20.92;61.18;96729.95;1699302;83;20129;-75
2021/06/30 00:13:53;;;;;;;;;;;;;;;20.95;61.10;96726.85;1714399;82;20107;-75
2021/06/30 00:16:20;;;;;;;;;;;;;;;20.98;61.42;96726.47;1717927;83;20103;-77
2021/06/30 00:18:47;;;;;;;;;;;;;;;21.03;60.95;96729.36;1725829;83;20143;-75
2021/06/30 00:21:13;;;;;;;;;;;;;;;21.04;60.34;96724.32;1723961;83;20107;-75
2021/06/30 00:23:39;;;;;;;;;;;;;;;21.05;59.76;96725.48;1725206;83;20388;-75
2021/06/30 00:26:05;;;;;;;;;;;;;;;21.06;60.53;96727.63;1700915;83;20137;-80
2021/06/30 00:28:31;;;;;;;;;;;;;;;21.07;61.12;96734.65;1697895;83;20109;-80
2021/06/30 00:30:58;;;;;;;;;;;;;;;21.09;61.43;96732.61;1696616;83;20125;-80
2021/06/30 00:33:24;;;;;;;;;;;;;;;21.11;60.60;96739.09;1710595;83;20103;-80
2021/06/30 00:35:50;;;;;;;;;;;;;;;21.13;61.20;96735.71;1734226;80;20193;-80
2021/06/30 00:38:16;;;;;;;;;;;;;;;21.13;60.72;96735.71;1749182;82;20389;-78
2021/06/30 00:40:45;;;;;;;;;;;;;;;21.12;60.73;96732.19;1730142;82;20103;-80
2021/06/30 00:43:11;;;;;;;;;;;;;;;21.10;60.76;96728.91;1749737;82;20099;-79
2021/06/30 00:45:37;;;;;;;;;;;;;;;21.12;61.04;96730.03;1727714;81;20129;-80
2021/06/30 00:48:03;;;;;;;;;;;;;;;21.10;60.71;96735.60;1720684;82;20194;-79
2021/06/30 00:50:30;;;;;;;;;;;;;;;21.06;60.95;96725.80;1744693;81;20107;-79
2021/06/30 00:52:56;;;;;;;;;;;;;;;21.03;60.79;96726.69;1748845;82;20412;-78
2021/06/30 00:55:23;;;;;;;;;;;;;;;21.00;61.13;96733.27;1748138;82;20384;-79
2021/06/30 00:57:49;;;;;;;;;;;;;;;20.94;62.04;96731.89;1748643;82;20095;-80
2021/06/30 01:00:17;;;;;;;;;;;;;;;20.86;62.05;96732.38;1746610;82;20099;-78
2021/06/30 01:02:43;;;;;;;;;;;;;;;20.80;61.62;96728.31;1718894;82;20446;-81
2021/06/30 01:05:10;;;;;;;;;;;;;;;20.70;62.02;96729.46;1718963;82;20129;-80
2021/06/30 01:07:37;;;;;;;;;;;;;;;20.63;61.82;96721.09;1725129;82;20407;-80
2021/06/30 01:10:04;;;;;;;;;;;;;;;20.55;62.18;96720.23;1734453;82;20121;-77
2021/06/30 01:12:31;;;;;;;;;;;;;;;20.48;61.82;96723.34;1740263;82;20135;-79
2021/06/30 01:15:04;;;;;;;;;;;;;;;20.41;63.05;96723.82;1762762;81;20101;-79
2021/06/30 01:17:32;;;;;;;;;;;;;;;20.34;62.47;96733.66;1759200;81;20113;-79
2021/06/30 01:19:58;;;;;;;;;;;;;;;20.28;62.10;96728.04;1723399;82;20167;-80
2021/06/30 01:22:26;;;;;;;;;;;;;;;20.23;62.58;96726.47;1749756;82;20410;-79
2021/06/30 01:24:53;;;;;;;;;;;;;;;20.18;62.72;96721.38;1749863;82;20135;-80
2021/06/30 01:27:20;;;;;;;;;;;;;;;20.13;61.53;96722.80;1749879;82;20103;-78
2021/06/30 01:29:47;;;;;;;;;;;;;;;20.06;62.00;96723.75;1742242;82;20435;-78
2021/06/30 01:32:14;;;;;;;;;;;;;;;20.03;62.60;96722.80;1746117;81;20099;-81
2021/06/30 01:34:40;;;;;;;;;;;;;;;20.00;62.48;96726.69;1728734;80;20145;-79
2021/06/30 01:37:07;;;;;;;;;;;;;;;19.96;62.62;96731.59;1718861;82;20105;-79
2021/06/30 01:39:33;;;;;;;;;;;;;;;19.94;61.49;96728.28;1721509;82;20090;-79
2021/06/30 01:42:01;;;;;;;;;;;;;;;19.93;62.73;96725.80;1733354;82;20153;-79
2021/06/30 01:44:27;;;;;;;;;;;;;;;19.88;63.29;96721.52;1718685;83;20109;-80
2021/06/30 01:46:53;;;;;;;;;;;;;;;19.83;63.56;96719.39;1718943;82;20415;-79
2021/06/30 01:49:21;;;;;;;;;;;;;;;19.78;63.66;96719.16;1723037;82;20145;-78
2021/06/30 01:51:47;;;;;;;;;;;;;;;19.73;63.51;96714.87;1743623;82;20127;-78
2021/06/30 01:54:16;;;;;;;;;;;;;;;19.68;64.18;96714.63;1749596;82;20401;-79
2021/06/30 01:56:46;;;;;;;;;;;;;;;19.62;64.00;96714.38;1749387;82;20139;-80
2021/06/30 01:59:14;;;;;;;;;;;;;;;19.58;64.08;96714.95;1738807;82;20176;-79
2021/06/30 02:01:42;;;;;;;;;;;;;;;19.54;64.60;96718.48;1726037;82;20153;-77
2021/06/30 02:04:09;;;;;;;;;;;;;;;19.50;63.58;96715.89;1748976;82;20147;-79
2021/06/30 02:06:39;;;;;;;;;;;;;;;19.49;64.61;96707.55;1729158;82;20110;-79
2021/06/30 02:09:07;;;;;;;;;;;;;;;19.46;63.18;96702.57;1742055;81;20157;-77
2021/06/30 02:11:33;;;;;;;;;;;;;;;19.43;63.69;96700.30;1732771;82;20131;-78
2021/06/30 02:13:59;;;;;;;;;;;;;;;19.39;64.51;96707.02;1742845;82;20123;-79
2021/06/30 02:16:26;;;;;;;;;;;;;;;19.35;64.40;96702.05;1748393;82;20087;-79
2021/06/30 02:18:52;;;;;;;;;;;;;;;19.32;63.61;96691.75;1749578;82;20098;-76
2021/06/30 02:21:19;;;;;;;;;;;;;;;19.30;64.31;96697.79;1727607;82;20418;-79
2021/06/30 02:23:45;;;;;;;;;;;;;;;19.29;65.20;96712.68;1732970;82;20099;-79
2021/06/30 02:26:12;;;;;;;;;;;;;;;19.26;65.11;96712.52;1749594;82;20099;-78
2021/06/30 02:28:38;;;;;;;;;;;;;;;19.24;63.64;96703.89;1733350;82;20405;-79
2021/06/30 02:31:04;;;;;;;;;;;;;;;19.25;64.37;96706.05;1731257;82;20400;-75
2021/06/30 02:33:31;;;;;;;;;;;;;;;19.21;64.99;96707.45;1747179;82;20095;-74
2021/06/30 02:35:59;;;;;;;;;;;;;;;19.20;62.71;96707.94;1733692;80;20111;-75
2021/06/30 02:38:25;;;;;;;;;;;;;;;19.19;64.23;96707.13;1742687;82;20105;-74
2021/06/30 02:40:51;;;;;;;;;;;;;;;19.19;64.23;96701.78;1737280;82;20107;-74
2021/06/30 02:43:17;;;;;;;;;;;;;;;19.18;64.38;96706.80;1717960;81;20391;-73
2021/06/30 02:45:43;;;;;;;;;;;;;;;19.17;63.99;96709.64;1751682;80;20111;-73
2021/06/30 02:48:09;;;;;;;;;;;;;;;19.17;64.02;96712.31;1749707;81;20098;-79
2021/06/30 02:50:36;;;;;;;;;;;;;;;19.14;67.26;96712.19;1748572;81;20134;-75
2021/06/30 02:53:02;;;;;;;;;;;;;;;19.11;64.96;96709.06;1749663;82;20107;-76
2021/06/30 02:55:28;;;;;;;;;;;;;;;19.11;65.25;96710.40;1748391;81;20111;-73
2021/06/30 02:57:54;;;;;;;;;;;;;;;19.14;65.98;96714.05;1748526;82;20107;-73
2021/06/30 03:00:24;;;;;;;;;;;;;;;19.16;65.49;96719.52;1749268;81;20123;-73
2021/06/30 03:02:50;;;;;;;;;;;;;;;19.22;65.44;96724.62;1755723;81;20099;-75
2021/06/30 03:05:17;;;;;;;;;;;;;;;19.29;66.22;96720.17;1748191;82;20099;-74
2021/06/30 03:07:43;;;;;;;;;;;;;;;19.36;65.96;96712.24;1747966;82;20160;-76
2021/06/30 03:10:11;;;;;;;;;;;;;;;19.46;65.81;96711.92;1748857;81;20099;-73
2021/06/30 03:12:37;;;;;;;;;;;;;;;19.54;66.09;96709.13;1748873;81;20107;-74
2021/06/30 03:15:05;;;;;;;;;;;;;;;19.64;64.82;96710.98;1746437;81;20136;-74
2021/06/30 03:17:34;;;;;;;;;;;;;;;19.71;65.53;96710.25;1749543;82;20135;-73
2021/06/30 03:20:00;;;;;;;;;;;;;;;19.83;65.08;96711.38;1748310;81;20094;-82
2021/06/30 03:22:26;;;;;;;;;;;;;;;19.96;65.05;96712.88;1748139;82;20104;-75
2021/06/30 03:24:53;;;;;;;;;;;;;;;20.07;65.18;96710.17;1727316;82;20114;-75
2021/06/30 03:27:20;;;;;;;;;;;;;;;20.17;64.65;96715.70;1748498;82;20114;-75
2021/06/30 03:29:46;;;;;;;;;;;;;;;20.29;64.77;96715.50;1749659;81;20423;-73
2021/06/30 03:32:13;;;;;;;;;;;;;;;20.40;62.93;96710.96;1749976;81;20131;-76
2021/06/30 03:34:39;;;;;;;;;;;;;;;20.46;63.44;96721.41;1749260;82;20107;-75
2021/06/30 03:37:05;;;;;;;;;;;;;;;20.58;63.59;96723.83;1749904;81;20126;-74
2021/06/30 03:39:31;;;;;;;;;;;;;;;20.70;63.45;96727.31;1749913;81;20456;-76
2021/06/30 03:41:57;;;;;;;;;;;;;;;20.80;61.81;96724.30;1756015;80;20093;-74
2021/06/30 03:44:25;;;;;;;;;;;;;;;20.81;62.61;96727.30;1754826;80;20200;-75
2021/06/30 03:46:52;;;;;;;;;;;;;;;20.88;62.63;96732.20;1736773;80;20149;-74
2021/06/30 03:49:18;;;;;;;;;;;;;;;20.97;62.45;96741.72;1718544;82;20466;-75
2021/06/30 03:51:44;;;;;;;;;;;;;;;21.09;61.56;96747.34;1718838;82;20149;-74
2021/06/30 03:54:10;;;;;;;;;;;;;;;21.19;61.64;96737.58;1748233;82;20095;-77
2021/06/30 03:56:38;;;;;;;;;;;;;;;21.36;61.76;96736.20;1748068;82;20119;-75
2021/06/30 03:59:04;;;;;;;;;;;;;;;21.63;60.96;96735.50;1747408;80;20106;-75
2021/06/30 04:01:31;;;;;;;;;;;;;;;21.87;60.63;96718.02;1749750;81;20138;-76
2021/06/30 04:04:01;;;;;;;;;;;;;;;22.13;59.92;96714.50;1748213;82;20127;-73
2021/06/30 04:06:25;;;;;;;;;;;;;;;22.41;59.16;96719.39;1749154;81;20114;-72
2021/06/30 04:08:51;;;;;;;;;;;;;;;22.71;58.69;96718.41;1748619;81;20131;-75
2021/06/30 04:11:17;;;;;;;;;;;;;;;23.10;58.17;96715.84;1748600;81;20099;-76
2021/06/30 04:13:45;;;;;;;;;;;;;;;23.50;57.65;96721.05;1748100;82;20103;-75
2021/06/30 04:16:13;;;;;;;;;;;;;;;23.91;57.15;96716.25;1748358;82;20091;-74
2021/06/30 04:18:39;;;;;;;;;;;;;;;24.37;56.42;96718.83;1751764;81;20463;-77
2021/06/30 04:21:05;;;;;;;;;;;;;;;24.81;55.69;96716.16;1748209;82;20099;-75
2021/06/30 04:23:34;;;;;;;;;;;;;;;25.06;54.09;96717.45;1744259;81;20099;-75
2021/06/30 04:26:00;;;;;;;;;;;;;;;25.27;52.94;96713.45;1724570;82;20131;-76
2021/06/30 04:28:26;;;;;;;;;;;;;;;25.28;51.53;96712.41;1747520;82;20107;-76
2021/06/30 04:30:52;;;;;;;;;;;;;;;25.59;52.37;96715.99;1732564;82;20106;-76
2021/06/30 04:33:21;;;;;;;;;;;;;;;25.66;52.22;96709.16;1718294;84;20394;-75
2021/06/30 04:35:47;;;;;;;;;;;;;;;25.97;51.80;96704.53;1718464;84;20101;-76
2021/06/30 04:38:13;;;;;;;;;;;;;;;26.34;50.95;96705.73;1725588;83;20093;-75
2021/06/30 04:40:41;;;;;;;;;;;;;;;26.77;50.95;96711.88;1726370;82;20393;-76
2021/06/30 04:43:07;;;;;;;;;;;;;;;27.16;49.98;96714.03;1731215;82;20095;-76
2021/06/30 04:45:33;;;;;;;;;;;;;;;27.58;47.73;96709.77;1757771;82;20094;-76
2021/06/30 04:47:59;;;;;;;;;;;;;;;27.97;47.94;96711.80;1757709;81;20127;-76
2021/06/30 04:50:25;;;;;;;;;;;;;;;28.27;46.25;96704.74;1757839;82;20114;-76
2021/06/30 04:52:52;;;;;;;;;;;;;;;28.24;46.62;96714.73;1757926;82;20102;-76
2021/06/30 04:55:19;;;;;;;;;;;;;;;28.41;46.57;96727.45;1757720;82;20152;-75
2021/06/30 04:57:46;;;;;;;;;;;;;;;28.50;45.84;96727.33;1757747;82;20431;-76
2021/06/30 05:00:13;;;;;;;;;;;;;;;28.33;45.73;96724.61;1757749;82;20095;-76
2021/06/30 05:02:39;;;;;;;;;;;;;;;27.96;45.09;96725.89;1757834;81;20108;-75
2021/06/30 05:05:06;;;;;;;;;;;;;;;27.69;45.17;96724.30;1757624;81;20106;-76
2021/06/30 05:07:32;;;;;;;;;;;;;;;27.54;46.41;96726.19;1757689;81;20115;-75
2021/06/30 05:09:58;;;;;;;;;;;;;;;27.56;45.55;96737.59;1757510;82;20395;-76
2021/06/30 05:12:24;;;;;;;;;;;;;;;27.55;48.54;96736.79;1755566;82;20135;-76
2021/06/30 05:14:52;;;;;;;;;;;;;;;27.43;52.67;96721.92;1757734;81;20387;-75
2021/06/30 05:17:18;;;;;;;;;;;;;;;27.04;51.47;96709.50;1757475;81;20431;-76
2021/06/30 05:19:44;;;;;;;;;;;;;;;26.52;50.32;96694.01;1757862;81;20150;-76
2021/06/30 05:22:10;;;;;;;;;;;;;;;26.08;51.03;96688.89;1757899;81;20139;-76
2021/06/30 05:24:36;;;;;;;;;;;;;;;25.78;50.16;96674.91;1757889;81;20098;-76
2021/06/30 05:27:03;;;;;;;;;;;;;;;25.35;52.03;96675.92;1746640;81;20165;-76
2021/06/30 05:29:29;;;;;;;;;;;;;;;25.01;52.44;96695.21;1737040;82;20149;-75
2021/06/30 05:31:55;;;;;;;;;;;;;;;24.86;53.67;96697.47;1741188;82;20393;-74
2021/06/30 05:34:21;;;;;;;;;;;;;;;24.79;53.95;96698.88;1754773;82;20101;-77
2021/06/30 05:36:48;;;;;;;;;;;;;;;24.71;56.11;96702.69;1757793;82;20115;-75
2021/06/30 05:39:16;;;;;;;;;;;;;;;24.52;54.64;96698.29;1757720;81;20099;-76
2021/06/30 05:41:43;;;;;;;;;;;;;;;24.38;54.83;96700.28;1755299;82;20103;-79
2021/06/30 05:44:11;;;;;;;;;;;;;;;24.29;54.01;96708.64;1755544;82;20111;-78
2021/06/30 05:46:41;;;;;;;;;;;;;;;24.31;56.28;96711.14;1745670;81;20090;-77
2021/06/30 05:49:08;;;;;;;;;;;;;;;24.35;57.50;96708.82;1757399;82;20102;-77
2021/06/30 05:51:35;;;;;;;;;;;;;;;24.35;57.18;96706.94;1742499;80;20094;-75
2021/06/30 05:54:03;;;;;;;;;;;;;;;24.37;58.08;96711.59;1734894;81;20406;-76
2021/06/30 05:56:29;;;;;;;;;;;;;;;24.41;58.35;96710.63;1726392;82;20425;-78
2021/06/30 05:58:55;;;;;;;;;;;;;;;24.48;57.05;96701.95;1733111;82;20110;-76
2021/06/30 06:01:22;;;;;;;;;;;;;;;24.39;55.91;96704.12;1749943;81;20132;-79
2021/06/30 06:03:48;;;;;;;;;;;;;;;24.30;56.81;96708.14;1745917;82;20099;-79
2021/06/30 06:06:14;;;;;;;;;;;;;;;24.30;58.25;96703.56;1748763;81;20113;-84
2021/06/30 06:08:41;;;;;;;;;;;;;;;24.56;56.78;96710.28;1728750;82;20101;-89
2021/06/30 06:11:12;;;;;;;;;;;;;;;24.88;57.05;96708.31;1726762;82;20105;-78
2021/06/30 06:13:36;;;;;;;;;;;;;;;25.33;56.51;96699.59;1728429;82;20454;-77
2021/06/30 06:16:03;;;;;;;;;;;;;;;25.75;54.63;96700.20;1735793;82;20390;-79
2021/06/30 06:18:29;;;;;;;;;;;;;;;26.03;53.96;96691.48;1729200;82;20105;-77
2021/06/30 06:20:55;;;;;;;;;;;;;;;26.19;53.62;96696.22;1704324;82;20117;-77
2021/06/30 06:23:21;;;;;;;;;;;;;;;26.58;53.13;96703.06;1728787;82;20133;-78
2021/06/30 06:25:47;;;;;;;;;;;;;;;26.91;52.71;96705.14;1728565;82;20104;-74
2021/06/30 06:28:15;;;;;;;;;;;;;;;27.19;51.31;96707.61;1750450;82;20147;-76
2021/06/30 06:30:41;;;;;;;;;;;;;;;27.27;51.94;96698.31;1757907;82;20174;-77
2021/06/30 06:33:07;;;;;;;;;;;;;;;27.34;50.00;96696.83;1757780;81;20098;-77
2021/06/30 06:35:33;;;;;;;;;;;;;;;27.39;49.41;96696.91;1758046;82;20095;-78
2021/06/30 06:38:00;;;;;;;;;;;;;;;27.95;49.41;96699.03;1729808;82;20118;-77
2021/06/30 06:40:27;;;;;;;;;;;;;;;28.67;48.02;96692.08;1760301;82;20099;-76
2021/06/30 06:42:53;;;;;;;;;;;;;;;29.21;47.53;96690.63;1760242;81;20451;-78
2021/06/30 06:45:19;;;;;;;;;;;;;;;29.43;45.51;96675.16;1760147;82;20154;-77
2021/06/30 06:47:46;;;;;;;;;;;;;;;29.61;45.47;96667.73;1760227;81;20082;-79
2021/06/30 06:50:12;;;;;;;;;;;;;;;29.55;45.07;96658.74;1760161;81;20443;-81
2021/06/30 06:52:40;;;;;;;;;;;;;;;29.56;46.54;96652.21;1760283;82;20115;-77
2021/06/30 06:55:10;;;;;;;;;;;;;;;29.54;45.11;96654.38;1760130;82;20419;-77
2021/06/30 06:57:34;;;;;;;;;;;;;;;29.55;44.97;96659.27;1759765;82;20162;-77
2021/06/30 07:00:01;;;;;;;;;;;;;;;29.27;45.55;96664.66;1760129;82;20143;-77
2021/06/30 07:02:28;;;;;;;;;;;;;;;28.95;46.16;96659.93;1760191;81;20110;-76
2021/06/30 07:04:54;;;;;;;;;;;;;;;28.80;46.82;96662.45;1760368;82;20131;-77
2021/06/30 07:07:20;;;;;;;;;;;;;;;28.84;47.17;96655.44;1760378;82;20099;-78
2021/06/30 07:09:47;;;;;;;;;;;;;;;28.63;46.72;96651.06;1760255;81;20126;-78
2021/06/30 07:12:13;;;;;;;;;;;;;;;28.44;47.34;96660.58;1760214;82;20119;-77
2021/06/30 07:14:39;;;;;;;;;;;;;;;28.25;47.59;96660.84;1760266;82;20138;-86
2021/06/30 07:17:06;;;;;;;;;;;;;;;28.08;48.35;96666.25;1760263;82;20102;-83
2021/06/30 07:19:32;;;;;;;;;;;;;;;28.31;48.46;96667.97;1760186;81;20094;-79
2021/06/30 07:21:58;;;;;;;;;;;;;;;28.58;47.71;96675.41;1760433;81;20414;-77
2021/06/30 07:24:26;;;;;;;;;;;;;;;28.70;47.66;96680.72;1760132;81;20430;-77
2021/06/30 07:26:53;;;;;;;;;;;;;;;28.59;47.60;96684.34;1760099;82;20139;-78
2021/06/30 07:29:19;;;;;;;;;;;;;;;28.47;47.69;96670.37;1760165;81;20132;-79
2021/06/30 07:31:46;;;;;;;;;;;;;;;28.61;48.00;96666.78;1760216;82;20150;-77
2021/06/30 07:34:12;;;;;;;;;;;;;;;29.04;46.96;96663.55;1760202;81;20126;-78
2021/06/30 07:36:38;;;;;;;;;;;;;;;29.34;46.30;96655.52;1760288;81;20114;-79
2021/06/30 07:39:05;;;;;;;;;;;;;;;29.58;46.62;96651.42;1750566;81;20103;-78
2021/06/30 07:41:31;;;;;;;;;;;;;;;29.84;46.31;96652.20;1749775;82;20103;-78
2021/06/30 07:43:58;;;;;;;;;;;;;;;30.25;45.15;96656.65;1749581;82;20107;-77
2021/06/30 07:46:24;;;;;;;;;;;;;;;30.52;45.07;96660.65;1749579;82;20439;-77
2021/06/30 07:48:50;;;;;;;;;;;;;;;30.56;44.22;96657.41;1749750;82;20123;-78
2021/06/30 07:51:17;;;;;;;;;;;;;;;30.65;44.32;96654.48;1749689;82;20105;-77
2021/06/30 07:53:44;;;;;;;;;;;;;;;30.49;43.87;96654.89;1749648;82;20111;-77
2021/06/30 07:56:11;;;;;;;;;;;;;;;30.66;43.86;96656.92;1749595;82;20122;-77
2021/06/30 07:58:40;;;;;;;;;;;;;;;30.49;43.74;96659.77;1749782;82;20114;-77
2021/06/30 08:01:06;;;;;;;;;;;;;;;30.59;43.57;96648.71;1749585;82;20087;-80
2021/06/30 08:03:32;;;;;;;;;;;;;;;30.84;44.02;96644.79;1749787;82;20155;-78
2021/06/30 08:05:58;;;;;;;;;;;;;;;31.17;42.70;96650.12;1749568;82;20151;-77
2021/06/30 08:08:24;;;;;;;;;;;;;;;31.29;42.48;96634.91;1749694;82;20099;-78
2021/06/30 08:10:50;;;;;;;;;;;;;;;31.46;42.62;96635.48;1749817;82;20086;-75
2021/06/30 08:13:16;;;;;;;;;;;;;;;31.70;42.51;96633.63;1749681;82;20106;-77
2021/06/30 08:15:42;;;;;;;;;;;;;;;31.63;41.69;96633.05;1749723;82;20114;-76
2021/06/30 08:18:09;;;;;;;;;;;;;;;31.25;42.52;96619.66;1749691;82;20099;-77
2021/06/30 08:20:36;;;;;;;;;;;;;;;31.29;42.81;96618.02;1749583;82;20099;-76
2021/06/30 08:23:02;;;;;;;;;;;;;;;31.23;42.98;96625.91;1749758;82;20114;-77
2021/06/30 08:25:30;;;;;;;;;;;;;;;31.31;42.86;96622.66;1749621;82;20130;-77
2021/06/30 08:27:59;;;;;;;;;;;;;;;31.37;42.69;96612.59;1749587;82;20383;-77
2021/06/30 08:30:24;;;;;;;;;;;;;;;31.18;43.00;96611.45;1749571;82;20170;-78
2021/06/30 08:32:50;;;;;;;;;;;;;;;31.21;43.29;96617.73;1749573;82;20396;-76
2021/06/30 08:35:16;;;;;;;;;;;;;;;31.34;42.81;96613.12;1749626;82;20099;-78
2021/06/30 08:37:47;;;;;;;;;;;;;;;31.17;43.17;96613.91;1749821;82;20254;-76
2021/06/30 08:40:14;;;;;;;;;;;;;;;31.05;43.77;96620.36;1749623;82;20392;-77
2021/06/30 08:42:42;;;;;;;;;;;;;;;31.00;43.53;96613.55;1749561;82;20103;-78
2021/06/30 08:45:09;;;;;;;;;;;;;;;31.15;43.58;96606.82;1749680;82;20110;-77
2021/06/30 08:47:35;;;;;;;;;;;;;;;31.21;43.53;96601.41;1749509;82;20146;-78
2021/06/30 08:50:05;;;;;;;;;;;;;;;31.31;43.38;96605.52;1749575;82;20399;-79
2021/06/30 08:52:34;;;;;;;;;;;;;;;31.43;43.31;96599.26;1749577;82;20103;-77
2021/06/30 08:55:02;;;;;;;;;;;;;;;31.49;42.93;96603.37;1749601;82;20087;-76
2021/06/30 08:57:29;;;;;;;;;;;;;;;31.40;42.47;96603.90;1749535;82;20130;-75
2021/06/30 08:59:56;;;;;;;;;;;;;;;31.21;43.22;96605.49;1749995;82;20388;-78
2021/06/30 09:02:22;;;;;;;;;;;;;;;31.14;42.90;96601.09;1749638;82;20404;-78
2021/06/30 09:04:58;;;;;;;;;;;;;;;31.39;43.12;96606.88;1749627;82;20099;-78
2021/06/30 09:07:17;;;;;;;;;;;;;;;31.56;41.31;96608.00;1748343;82;20117;-76
2021/06/30 09:09:43;;;;;;;;;;;;;;;31.93;42.23;96599.58;1749573;82;20091;-77
2021/06/30 09:12:11;;;;;;;;;;;;;;;32.17;41.49;96599.55;1749682;82;20436;-77
2021/06/30 09:14:40;;;;;;;;;;;;;;;32.16;39.79;96600.64;1749803;82;20253;-78
2021/06/30 09:19:51;;;;;;;;;;;;;;;32.25;39.88;96579.94;1749459;82;20388;-77
2021/06/30 09:22:19;;;;;;;;;;;;;;;32.30;39.40;96575.86;1749705;82;20144;-76
2021/06/30 09:24:46;;;;;;;;;;;;;;;32.42;39.35;96568.73;1749872;82;20127;-77
2021/06/30 09:27:13;;;;;;;;;;;;;;;32.58;37.89;96564.05;1749989;82;20147;-74
2021/06/30 09:29:41;;;;;;;;;;;;;;;32.66;38.30;96559.38;1749683;82;20102;-78
2021/06/30 09:32:10;;;;;;;;;;;;;;;32.67;39.13;96561.55;1749703;82;20449;-79
2021/06/30 09:34:37;;;;;;;;;;;;;;;32.73;39.06;96551.42;1749531;82;20126;-78
2021/06/30 09:37:07;;;;;;;;;;;;;;;32.71;37.96;96547.63;1749898;82;20103;-77
2021/06/30 09:39:36;;;;;;;;;;;;;;;32.77;38.33;96551.15;1756394;82;20122;-77
2021/06/30 09:42:09;;;;;;;;;;;;;;;32.84;37.49;96557.14;1757704;82;20154;-77
2021/06/30 09:44:36;;;;;;;;;;;;;;;32.86;38.41;96549.50;1757638;82;20174;-77
2021/06/30 09:47:04;;;;;;;;;;;;;;;32.81;37.74;96546.78;1757712;81;20146;-77
2021/06/30 09:49:32;;;;;;;;;;;;;;;32.77;37.82;96548.42;1757665;82;20098;-76
2021/06/30 09:52:17;;;;;;;;;;;;;;;32.82;39.05;96543.79;1757802;82;20184;-77
2021/06/30 09:54:46;;;;;;;;;;;;;;;32.83;38.54;96539.14;1757767;81;20431;-76
2021/06/30 09:57:14;;;;;;;;;;;;;;;32.83;38.44;96540.50;1753489;82;20106;-76
2021/06/30 09:59:42;;;;;;;;;;;;;;;32.95;38.63;96535.53;1757716;82;20400;-78
2021/06/30 10:02:11;;;;;;;;;;;;;;;33.09;38.13;96536.25;1731197;82;20104;-75
2021/06/30 10:04:43;;;;;;;;;;;;;;;33.28;38.13;96538.59;1730321;82;20137;-78
2021/06/30 10:07:19;;;;;;;;;;;;;;;33.41;37.62;96532.26;1729056;80;20097;-75
2021/06/30 10:09:52;;;;;;;;;;;;;;;33.47;38.08;96522.91;1752439;80;20109;-77
2021/06/30 10:12:22;;;;;;;;;;;;;;;33.58;37.34;96523.10;1755292;82;20119;-77
2021/06/30 10:14:48;;;;;;;;;;;;;;;33.65;35.86;96520.05;1745861;82;20159;-75
2021/06/30 10:17:15;;;;;;;;;;;;;;;33.67;36.45;96518.38;1757386;82;20098;-78
2021/06/30 10:19:43;;;;;;;;;;;;;;;33.70;35.20;96513.72;1723128;82;20512;-76
2021/06/30 10:22:10;;;;;;;;;;;;;;;33.81;35.72;96507.06;1736259;82;20425;-77
2021/06/30 10:24:38;;;;;;;;;;;;;;;33.93;35.99;96506.70;1736038;82;20396;-76
2021/06/30 10:27:05;;;;;;;;;;;;;;;33.99;34.60;96510.20;1753136;81;20392;-75
2021/06/30 10:29:35;;;;;;;;;;;;;;;34.04;35.02;96505.50;1757608;82;20411;-76
2021/06/30 10:32:04;;;;;;;;;;;;;;;34.22;34.58;96514.05;1756426;82;20107;-75
2021/06/30 10:34:42;;;;;;;;;;;;;;;34.34;34.03;96510.34;1756091;82;20424;-77
2021/06/30 10:37:36;;;;;;;;;;;;;;;34.38;34.75;96507.33;1756954;80;20467;-77
2021/06/30 10:40:13;;;;;;;;;;;;;;;34.47;35.01;96502.03;1751799;80;20424;-78
2021/06/30 10:42:43;;;;;;;;;;;;;;;34.43;33.72;96496.08;1749649;82;20147;-79
2021/06/30 10:45:21;;;;;;;;;;;;;;;34.48;33.98;96485.06;1749729;82;20115;-77
2021/06/30 10:48:07;;;;;;;;;;;;;;;34.44;33.79;96495.77;1744411;81;20097;-75
2021/06/30 10:50:47;;;;;;;;;;;;;;;34.36;33.31;96490.92;1725473;81;20442;-77
2021/06/30 10:53:26;;;;;;;;;;;;;;;34.46;34.28;96488.09;1732668;81;20123;-80
2021/06/30 10:55:53;;;;;;;;;;;;;;;34.42;35.03;96481.56;1744541;82;20100;-77
2021/06/30 10:58:22;;;;;;;;;;;;;;;34.42;34.91;96482.13;1746018;82;20107;-75
2021/06/30 11:00:59;;;;;;;;;;;;;;;34.45;34.49;96480.16;1718349;83;20129;-77
2021/06/30 11:03:36;;;;;;;;;;;;;;;34.47;34.72;96476.05;1718389;84;20101;-75
2021/06/30 11:06:26;;;;;;;;;;;;;;;34.57;35.61;96476.45;1718310;83;20397;-74
2021/06/30 11:09:00;;;;;;;;;;;;;;;34.58;33.96;96472.61;1718380;83;20137;-76
2021/06/30 11:11:32;;;;;;;;;;;;;;;34.49;34.93;96471.64;1734246;82;20179;-76
2021/06/30 11:14:06;;;;;;;;;;;;;;;34.39;34.57;96465.73;1749796;82;20445;-77
2021/06/30 11:16:48;;;;;;;;;;;;;;;34.39;35.45;96461.62;1749633;82;20434;-76
2021/06/30 11:19:21;;;;;;;;;;;;;;;34.37;35.06;96459.17;1749691;82;20439;-77
2021/06/30 11:21:51;;;;;;;;;;;;;;;34.36;34.49;96460.27;1749753;82;20156;-77
2021/06/30 11:24:49;;;;;;;;;;;;;;;34.29;34.16;96463.13;1724401;83;20099;-77
2021/06/30 11:27:24;;;;;;;;;;;;;;;34.18;34.66;96457.77;1724617;82;20103;-74
2021/06/30 11:29:58;;;;;;;;;;;;;;;34.09;34.78;96458.95;1723570;83;20113;-75
2021/06/30 11:32:38;;;;;;;;;;;;;;;34.08;34.74;96456.52;1689229;85;20395;-77
2021/06/30 11:35:25;;;;;;;;;;;;;;;34.09;34.86;96453.48;1692071;85;20101;-75
2021/06/30 11:38:00;;;;;;;;;;;;;;;34.16;35.59;96449.05;1589384;90;20159;-75
2021/06/30 11:40:42;;;;;;;;;;;;;;;34.23;35.60;96437.19;1573432;90;20463;-77
2021/06/30 11:43:16;;;;;;;;;;;;;;;34.31;35.46;96430.27;1572300;91;20153;-77
2021/06/30 11:45:43;;;;;;;;;;;;;;;34.42;34.94;96428.23;1571788;91;20153;-77
2021/06/30 11:48:11;;;;;;;;;;;;;;;34.44;34.84;96425.20;1571125;91;20154;-77
2021/06/30 11:50:50;;;;;;;;;;;;;;;34.41;34.25;96422.50;1571629;91;20121;-76
2021/06/30 11:53:19;;;;;;;;;;;;;;;34.49;34.11;96418.30;1558499;91;20154;-76
2021/06/30 11:55:46;;;;;;;;;;;;;;;34.55;35.14;96422.05;1571529;91;20166;-76
2021/06/30 11:58:12;;;;;;;;;;;;;;;34.62;34.82;96414.02;1572450;91;20134;-77
2021/06/30 12:00:42;;;;;;;;;;;;;;;34.64;34.13;96413.97;1574150;88;20138;-77
2021/06/30 12:03:09;;;;;;;;;;;;;;;34.69;33.74;96408.98;1603962;88;20491;-75
2021/06/30 12:05:38;;;;;;;;;;;;;;;34.75;34.83;96406.45;1617543;88;20152;-73
2021/06/30 12:08:09;;;;;;;;;;;;;;;34.75;34.69;96409.19;1601400;86;20105;-76
2021/06/30 12:10:37;;;;;;;;;;;;;;;34.81;34.42;96407.16;1588096;90;20115;-74
2021/06/30 12:13:03;;;;;;;;;;;;;;;34.87;34.03;96412.27;1594577;89;20144;-76
2021/06/30 12:15:29;;;;;;;;;;;;;;;35.02;33.48;96400.29;1711547;83;20405;-75
2021/06/30 12:17:57;;;;;;;;;;;;;;;35.13;33.04;96400.12;1732314;83;20434;-77
2021/06/30 12:20:26;;;;;;;;;;;;;;;35.16;31.77;96400.91;1693107;85;20404;-76
2021/06/30 12:22:52;;;;;;;;;;;;;;;35.14;29.83;96394.34;1693496;85;20143;-75
2021/06/30 12:25:24;;;;;;;;;;;;;;;35.18;31.44;96396.75;1691549;84;20135;-79
2021/06/30 12:27:55;;;;;;;;;;;;;;;35.23;30.96;96393.11;1691824;84;20124;-77
2021/06/30 12:30:30;;;;;;;;;;;;;;;35.34;31.71;96390.99;1668834;85;20126;-77
2021/06/30 12:32:59;;;;;;;;;;;;;;;35.37;30.54;96386.30;1682829;83;20477;-74
2021/06/30 12:35:28;;;;;;;;;;;;;;;35.41;30.27;96389.27;1697887;83;20361;-78
2021/06/30 12:37:59;;;;;;;;;;;;;;;35.45;30.73;96382.89;1692442;85;20120;-73
2021/06/30 12:40:27;;;;;;;;;;;;;;;35.48;30.42;96386.41;1662462;84;20132;-78
2021/06/30 12:42:57;;;;;;;;;;;;;;;35.53;29.99;96378.64;1655723;85;20674;-75
2021/06/30 12:45:41;;;;;;;;;;;;;;;35.61;30.26;96366.98;1634868;85;20441;-77
2021/06/30 12:48:10;;;;;;;;;;;;;;;35.64;30.01;96366.92;1647909;86;20095;-77
2021/06/30 12:50:41;;;;;;;;;;;;;;;35.65;30.39;96362.50;1643808;84;20151;-75
2021/06/30 12:53:15;;;;;;;;;;;;;;;35.62;30.97;96365.87;1704010;83;20149;-74
2021/06/30 12:56:04;;;;;;;;;;;;;;;35.56;29.27;96353.93;1728231;82;20131;-75